sensor_id;sensor_type;location;lat;lon;timestamp;P1;durP1;ratioP1;P2;durP2;ratioP2
36379;SDS011;22411;53.016;18.632;2024-01-15T00:01:17;11.80;;;7.23;;
36379;SDS011;22411;53.016;18.632;2024-01-15T00:03:58;11.73;;;7.05;;
36379;SDS011;22411;53.016;18.632;2024-01-15T00:06:24;10.30;;;6.93;;
36379;SDS011;22411;53.016;18.632;2024-01-15T00:08:52;10.80;;;7.03;;
36379;SDS011;22411;53.016;18.632;2024-01-15T00:11:17;10.47;;;7.53;;
36379;SDS011;22411;53.016;18.632;2024-01-15T00:13:43;17.63;;;8.03;;
36379;SDS011;22411;53.016;18.632;2024-01-15T00:16:09;12.40;;;7.13;;
36379;SDS011;22411;53.016;18.632;2024-01-15T00:18:35;15.90;;;9.07;;
36379;SDS011;22411;53.016;18.632;2024-01-15T00:21:01;13.80;;;8.77;;
36379;SDS011;22411;53.016;18.632;2024-01-15T00:23:27;15.57;;;9.77;;
36379;SDS011;22411;53.016;18.632;2024-01-15T00:25:53;16.23;;;9.50;;
36379;SDS011;22411;53.016;18.632;2024-01-15T00:28:18;16.47;;;9.37;;
36379;SDS011;22411;53.016;18.632;2024-01-15T00:30:44;16.30;;;10.00;;
36379;SDS011;22411;53.016;18.632;2024-01-15T00:33:10;16.47;;;10.13;;
36379;SDS011;22411;53.016;18.632;2024-01-15T00:35:37;16.50;;;10.50;;
36379;SDS011;22411;53.016;18.632;2024-01-15T00:38:03;20.40;;;11.40;;
36379;SDS011;22411;53.016;18.632;2024-01-15T00:40:29;17.93;;;10.97;;
36379;SDS011;22411;53.016;18.632;2024-01-15T00:42:55;17.50;;;10.77;;
36379;SDS011;22411;53.016;18.632;2024-01-15T00:45:20;19.33;;;11.53;;
36379;SDS011;22411;53.016;18.632;2024-01-15T00:47:46;16.90;;;10.40;;
36379;SDS011;22411;53.016;18.632;2024-01-15T00:50:12;22.63;;;12.33;;
36379;SDS011;22411;53.016;18.632;2024-01-15T00:52:38;21.00;;;11.77;;
36379;SDS011;22411;53.016;18.632;2024-01-15T00:55:04;22.83;;;12.30;;
36379;SDS011;22411;53.016;18.632;2024-01-15T00:57:30;18.10;;;10.03;;
36379;SDS011;22411;53.016;18.632;2024-01-15T00:59:56;21.73;;;11.73;;
36379;SDS011;22411;53.016;18.632;2024-01-15T01:02:21;21.33;;;11.33;;
36379;SDS011;22411;53.016;18.632;2024-01-15T01:04:47;17.93;;;10.43;;
36379;SDS011;22411;53.016;18.632;2024-01-15T01:07:13;18.03;;;10.57;;
36379;SDS011;22411;53.016;18.632;2024-01-15T01:09:38;15.67;;;9.87;;
36379;SDS011;22411;53.016;18.632;2024-01-15T01:12:04;20.23;;;12.23;;
36379;SDS011;22411;53.016;18.632;2024-01-15T01:14:31;19.43;;;11.53;;
36379;SDS011;22411;53.016;18.632;2024-01-15T01:16:57;20.57;;;11.23;;
36379;SDS011;22411;53.016;18.632;2024-01-15T01:19:23;19.93;;;10.50;;
36379;SDS011;22411;53.016;18.632;2024-01-15T01:21:50;18.00;;;9.57;;
36379;SDS011;22411;53.016;18.632;2024-01-15T01:24:16;15.97;;;10.93;;
36379;SDS011;22411;53.016;18.632;2024-01-15T01:26:42;19.07;;;10.93;;
36379;SDS011;22411;53.016;18.632;2024-01-15T01:29:08;17.13;;;10.67;;
36379;SDS011;22411;53.016;18.632;2024-01-15T01:31:33;20.10;;;10.60;;
36379;SDS011;22411;53.016;18.632;2024-01-15T01:33:59;15.13;;;9.43;;
36379;SDS011;22411;53.016;18.632;2024-01-15T01:36:25;15.77;;;10.00;;
36379;SDS011;22411;53.016;18.632;2024-01-15T01:38:51;14.93;;;9.80;;
36379;SDS011;22411;53.016;18.632;2024-01-15T01:41:16;22.73;;;11.20;;
36379;SDS011;22411;53.016;18.632;2024-01-15T01:43:43;17.03;;;10.43;;
36379;SDS011;22411;53.016;18.632;2024-01-15T01:46:08;16.97;;;9.87;;
36379;SDS011;22411;53.016;18.632;2024-01-15T01:48:34;15.30;;;9.10;;
36379;SDS011;22411;53.016;18.632;2024-01-15T01:51:02;19.10;;;11.87;;
36379;SDS011;22411;53.016;18.632;2024-01-15T01:53:29;17.33;;;11.07;;
36379;SDS011;22411;53.016;18.632;2024-01-15T01:55:59;17.90;;;10.13;;
36379;SDS011;22411;53.016;18.632;2024-01-15T01:58:25;18.60;;;11.07;;
36379;SDS011;22411;53.016;18.632;2024-01-15T02:00:51;18.47;;;10.63;;
36379;SDS011;22411;53.016;18.632;2024-01-15T02:03:17;17.50;;;10.17;;
36379;SDS011;22411;53.016;18.632;2024-01-15T02:05:43;18.57;;;11.60;;
36379;SDS011;22411;53.016;18.632;2024-01-15T02:08:10;20.93;;;12.33;;
36379;SDS011;22411;53.016;18.632;2024-01-15T02:10:35;17.33;;;10.60;;
36379;SDS011;22411;53.016;18.632;2024-01-15T02:13:02;18.23;;;11.27;;
36379;SDS011;22411;53.016;18.632;2024-01-15T02:15:27;18.90;;;10.77;;
36379;SDS011;22411;53.016;18.632;2024-01-15T02:18:04;17.87;;;11.10;;
36379;SDS011;22411;53.016;18.632;2024-01-15T02:20:31;21.17;;;12.27;;
36379;SDS011;22411;53.016;18.632;2024-01-15T02:23:03;18.27;;;11.63;;
36379;SDS011;22411;53.016;18.632;2024-01-15T02:25:33;16.27;;;9.47;;
36379;SDS011;22411;53.016;18.632;2024-01-15T02:27:59;17.40;;;10.10;;
36379;SDS011;22411;53.016;18.632;2024-01-15T02:30:25;19.60;;;11.07;;
36379;SDS011;22411;53.016;18.632;2024-01-15T02:32:52;18.50;;;11.67;;
36379;SDS011;22411;53.016;18.632;2024-01-15T02:35:18;19.10;;;12.53;;
36379;SDS011;22411;53.016;18.632;2024-01-15T02:37:44;16.63;;;10.47;;
36379;SDS011;22411;53.016;18.632;2024-01-15T02:40:10;19.20;;;11.63;;
36379;SDS011;22411;53.016;18.632;2024-01-15T02:42:36;20.40;;;10.80;;
36379;SDS011;22411;53.016;18.632;2024-01-15T02:45:01;14.73;;;9.17;;
36379;SDS011;22411;53.016;18.632;2024-01-15T02:47:27;16.77;;;11.07;;
36379;SDS011;22411;53.016;18.632;2024-01-15T02:49:53;15.60;;;8.43;;
36379;SDS011;22411;53.016;18.632;2024-01-15T02:52:18;15.67;;;9.83;;
36379;SDS011;22411;53.016;18.632;2024-01-15T02:54:44;15.07;;;9.47;;
36379;SDS011;22411;53.016;18.632;2024-01-15T02:57:10;17.10;;;8.77;;
36379;SDS011;22411;53.016;18.632;2024-01-15T02:59:35;12.90;;;8.07;;
36379;SDS011;22411;53.016;18.632;2024-01-15T03:02:01;14.13;;;8.30;;
36379;SDS011;22411;53.016;18.632;2024-01-15T03:04:27;12.07;;;8.10;;
36379;SDS011;22411;53.016;18.632;2024-01-15T03:06:52;13.00;;;7.37;;
36379;SDS011;22411;53.016;18.632;2024-01-15T03:09:18;12.23;;;7.37;;
36379;SDS011;22411;53.016;18.632;2024-01-15T03:11:44;11.73;;;7.67;;
36379;SDS011;22411;53.016;18.632;2024-01-15T03:14:09;10.03;;;7.10;;
36379;SDS011;22411;53.016;18.632;2024-01-15T03:16:35;10.93;;;7.13;;
36379;SDS011;22411;53.016;18.632;2024-01-15T03:19:01;15.23;;;8.13;;
36379;SDS011;22411;53.016;18.632;2024-01-15T03:21:26;9.97;;;7.33;;
36379;SDS011;22411;53.016;18.632;2024-01-15T03:23:52;11.50;;;7.30;;
36379;SDS011;22411;53.016;18.632;2024-01-15T03:26:18;12.23;;;7.30;;
36379;SDS011;22411;53.016;18.632;2024-01-15T03:28:43;14.30;;;7.47;;
36379;SDS011;22411;53.016;18.632;2024-01-15T03:31:09;10.47;;;6.73;;
36379;SDS011;22411;53.016;18.632;2024-01-15T03:33:35;13.03;;;8.00;;
36379;SDS011;22411;53.016;18.632;2024-01-15T03:36:01;13.43;;;7.47;;
36379;SDS011;22411;53.016;18.632;2024-01-15T03:38:28;12.77;;;7.37;;
36379;SDS011;22411;53.016;18.632;2024-01-15T03:40:54;14.40;;;8.10;;
36379;SDS011;22411;53.016;18.632;2024-01-15T03:43:19;12.60;;;7.97;;
36379;SDS011;22411;53.016;18.632;2024-01-15T03:45:45;17.37;;;8.87;;
36379;SDS011;22411;53.016;18.632;2024-01-15T03:48:11;14.40;;;8.47;;
36379;SDS011;22411;53.016;18.632;2024-01-15T03:50:39;14.10;;;8.67;;
36379;SDS011;22411;53.016;18.632;2024-01-15T03:53:05;15.83;;;7.47;;
36379;SDS011;22411;53.016;18.632;2024-01-15T03:55:32;14.73;;;8.70;;
36379;SDS011;22411;53.016;18.632;2024-01-15T03:57:57;15.67;;;8.50;;
36379;SDS011;22411;53.016;18.632;2024-01-15T04:00:23;13.07;;;8.23;;
36379;SDS011;22411;53.016;18.632;2024-01-15T04:02:49;14.27;;;9.37;;
36379;SDS011;22411;53.016;18.632;2024-01-15T04:05:15;14.77;;;8.80;;
36379;SDS011;22411;53.016;18.632;2024-01-15T04:07:40;15.10;;;9.07;;
36379;SDS011;22411;53.016;18.632;2024-01-15T04:10:06;16.13;;;9.30;;
36379;SDS011;22411;53.016;18.632;2024-01-15T04:12:32;16.10;;;9.80;;
36379;SDS011;22411;53.016;18.632;2024-01-15T04:14:58;14.97;;;8.63;;
36379;SDS011;22411;53.016;18.632;2024-01-15T04:17:24;16.80;;;10.27;;
36379;SDS011;22411;53.016;18.632;2024-01-15T04:19:50;15.93;;;8.93;;
36379;SDS011;22411;53.016;18.632;2024-01-15T04:22:15;18.40;;;9.23;;
36379;SDS011;22411;53.016;18.632;2024-01-15T04:24:41;18.93;;;10.30;;
36379;SDS011;22411;53.016;18.632;2024-01-15T04:27:06;20.70;;;11.13;;
36379;SDS011;22411;53.016;18.632;2024-01-15T04:29:32;19.57;;;10.63;;
36379;SDS011;22411;53.016;18.632;2024-01-15T04:31:58;23.20;;;11.30;;
36379;SDS011;22411;53.016;18.632;2024-01-15T04:34:24;22.87;;;11.53;;
36379;SDS011;22411;53.016;18.632;2024-01-15T04:36:49;22.83;;;14.33;;
36379;SDS011;22411;53.016;18.632;2024-01-15T04:39:15;25.67;;;12.97;;
36379;SDS011;22411;53.016;18.632;2024-01-15T04:41:41;21.23;;;12.70;;
36379;SDS011;22411;53.016;18.632;2024-01-15T04:44:06;27.27;;;14.77;;
36379;SDS011;22411;53.016;18.632;2024-01-15T04:46:32;23.03;;;13.70;;
36379;SDS011;22411;53.016;18.632;2024-01-15T04:48:58;26.23;;;13.43;;
36379;SDS011;22411;53.016;18.632;2024-01-15T04:51:23;26.60;;;13.60;;
36379;SDS011;22411;53.016;18.632;2024-01-15T04:53:49;25.73;;;13.80;;
36379;SDS011;22411;53.016;18.632;2024-01-15T04:56:15;25.97;;;12.83;;
36379;SDS011;22411;53.016;18.632;2024-01-15T04:58:41;26.50;;;13.80;;
36379;SDS011;22411;53.016;18.632;2024-01-15T05:01:07;24.37;;;13.60;;
36379;SDS011;22411;53.016;18.632;2024-01-15T05:03:33;22.83;;;13.30;;
36379;SDS011;22411;53.016;18.632;2024-01-15T05:05:59;20.57;;;11.80;;
36379;SDS011;22411;53.016;18.632;2024-01-15T05:08:25;27.90;;;13.60;;
36379;SDS011;22411;53.016;18.632;2024-01-15T05:10:50;23.40;;;13.80;;
36379;SDS011;22411;53.016;18.632;2024-01-15T05:13:16;24.97;;;12.37;;
36379;SDS011;22411;53.016;18.632;2024-01-15T05:15:41;28.07;;;14.27;;
36379;SDS011;22411;53.016;18.632;2024-01-15T05:18:07;26.90;;;13.40;;
36379;SDS011;22411;53.016;18.632;2024-01-15T05:20:33;23.67;;;13.67;;
36379;SDS011;22411;53.016;18.632;2024-01-15T05:22:59;20.73;;;12.60;;
36379;SDS011;22411;53.016;18.632;2024-01-15T05:25:24;18.13;;;11.23;;
36379;SDS011;22411;53.016;18.632;2024-01-15T05:27:50;24.27;;;11.93;;
36379;SDS011;22411;53.016;18.632;2024-01-15T05:30:17;21.00;;;10.87;;
36379;SDS011;22411;53.016;18.632;2024-01-15T05:32:43;20.60;;;10.77;;
36379;SDS011;22411;53.016;18.632;2024-01-15T05:35:08;21.30;;;10.87;;
36379;SDS011;22411;53.016;18.632;2024-01-15T05:37:34;22.43;;;11.93;;
36379;SDS011;22411;53.016;18.632;2024-01-15T05:40:00;19.40;;;9.10;;
36379;SDS011;22411;53.016;18.632;2024-01-15T05:42:28;15.87;;;8.33;;
36379;SDS011;22411;53.016;18.632;2024-01-15T05:44:55;23.30;;;10.30;;
36379;SDS011;22411;53.016;18.632;2024-01-15T05:47:21;15.63;;;8.20;;
36379;SDS011;22411;53.016;18.632;2024-01-15T05:49:47;9.23;;;5.93;;
36379;SDS011;22411;53.016;18.632;2024-01-15T05:52:13;13.83;;;7.20;;
36379;SDS011;22411;53.016;18.632;2024-01-15T05:54:38;15.43;;;8.27;;
36379;SDS011;22411;53.016;18.632;2024-01-15T05:57:04;14.30;;;7.57;;
36379;SDS011;22411;53.016;18.632;2024-01-15T05:59:29;14.37;;;8.70;;
36379;SDS011;22411;53.016;18.632;2024-01-15T06:01:57;15.03;;;7.20;;
36379;SDS011;22411;53.016;18.632;2024-01-15T06:04:23;11.83;;;5.13;;
36379;SDS011;22411;53.016;18.632;2024-01-15T06:06:49;7.33;;;5.10;;
36379;SDS011;22411;53.016;18.632;2024-01-15T06:09:14;8.17;;;4.50;;
36379;SDS011;22411;53.016;18.632;2024-01-15T06:11:40;7.80;;;3.27;;
36379;SDS011;22411;53.016;18.632;2024-01-15T06:14:05;6.97;;;3.40;;
36379;SDS011;22411;53.016;18.632;2024-01-15T06:16:31;8.27;;;3.47;;
36379;SDS011;22411;53.016;18.632;2024-01-15T06:18:57;6.20;;;2.33;;
36379;SDS011;22411;53.016;18.632;2024-01-15T06:21:23;11.80;;;2.97;;
36379;SDS011;22411;53.016;18.632;2024-01-15T06:23:48;5.20;;;2.90;;
36379;SDS011;22411;53.016;18.632;2024-01-15T06:26:14;5.83;;;2.80;;
36379;SDS011;22411;53.016;18.632;2024-01-15T06:28:40;10.50;;;3.27;;
36379;SDS011;22411;53.016;18.632;2024-01-15T06:31:06;7.40;;;2.73;;
36379;SDS011;22411;53.016;18.632;2024-01-15T06:33:32;5.63;;;2.43;;
36379;SDS011;22411;53.016;18.632;2024-01-15T06:35:58;4.60;;;2.47;;
36379;SDS011;22411;53.016;18.632;2024-01-15T06:38:24;6.70;;;2.57;;
36379;SDS011;22411;53.016;18.632;2024-01-15T06:40:51;5.10;;;3.07;;
36379;SDS011;22411;53.016;18.632;2024-01-15T06:43:19;3.93;;;1.90;;
36379;SDS011;22411;53.016;18.632;2024-01-15T06:45:45;5.80;;;1.97;;
36379;SDS011;22411;53.016;18.632;2024-01-15T06:48:10;5.07;;;3.20;;
36379;SDS011;22411;53.016;18.632;2024-01-15T06:50:40;6.47;;;2.97;;
36379;SDS011;22411;53.016;18.632;2024-01-15T06:53:05;7.13;;;3.60;;
36379;SDS011;22411;53.016;18.632;2024-01-15T06:55:31;6.87;;;2.40;;
36379;SDS011;22411;53.016;18.632;2024-01-15T06:57:57;6.30;;;3.50;;
36379;SDS011;22411;53.016;18.632;2024-01-15T07:00:23;6.93;;;3.73;;
36379;SDS011;22411;53.016;18.632;2024-01-15T07:02:48;8.17;;;3.70;;
36379;SDS011;22411;53.016;18.632;2024-01-15T07:05:14;5.90;;;2.80;;
36379;SDS011;22411;53.016;18.632;2024-01-15T07:07:40;6.97;;;3.20;;
36379;SDS011;22411;53.016;18.632;2024-01-15T07:10:06;5.47;;;3.40;;
36379;SDS011;22411;53.016;18.632;2024-01-15T07:12:32;8.83;;;3.77;;
36379;SDS011;22411;53.016;18.632;2024-01-15T07:14:58;9.80;;;3.93;;
36379;SDS011;22411;53.016;18.632;2024-01-15T07:17:23;11.17;;;3.07;;
36379;SDS011;22411;53.016;18.632;2024-01-15T07:19:52;7.47;;;3.33;;
36379;SDS011;22411;53.016;18.632;2024-01-15T07:22:18;6.53;;;3.43;;
36379;SDS011;22411;53.016;18.632;2024-01-15T07:24:44;6.13;;;4.03;;
36379;SDS011;22411;53.016;18.632;2024-01-15T07:27:09;5.60;;;2.53;;
36379;SDS011;22411;53.016;18.632;2024-01-15T07:29:35;7.27;;;4.07;;
36379;SDS011;22411;53.016;18.632;2024-01-15T07:32:08;11.20;;;5.07;;
36379;SDS011;22411;53.016;18.632;2024-01-15T07:34:34;8.87;;;3.07;;
36379;SDS011;22411;53.016;18.632;2024-01-15T07:37:02;6.00;;;2.27;;
36379;SDS011;22411;53.016;18.632;2024-01-15T07:39:28;6.77;;;2.70;;
36379;SDS011;22411;53.016;18.632;2024-01-15T07:41:54;7.37;;;2.40;;
36379;SDS011;22411;53.016;18.632;2024-01-15T07:44:20;6.17;;;3.97;;
36379;SDS011;22411;53.016;18.632;2024-01-15T07:46:46;6.10;;;3.67;;
36379;SDS011;22411;53.016;18.632;2024-01-15T07:49:12;7.20;;;4.03;;
36379;SDS011;22411;53.016;18.632;2024-01-15T07:51:38;10.83;;;6.13;;
36379;SDS011;22411;53.016;18.632;2024-01-15T07:54:06;9.03;;;4.93;;
36379;SDS011;22411;53.016;18.632;2024-01-15T07:56:32;6.40;;;3.40;;
36379;SDS011;22411;53.016;18.632;2024-01-15T07:58:58;4.80;;;2.80;;
36379;SDS011;22411;53.016;18.632;2024-01-15T08:01:24;12.27;;;3.97;;
36379;SDS011;22411;53.016;18.632;2024-01-15T08:03:50;11.30;;;5.53;;
36379;SDS011;22411;53.016;18.632;2024-01-15T08:06:15;7.40;;;4.07;;
36379;SDS011;22411;53.016;18.632;2024-01-15T08:08:41;6.50;;;4.20;;
36379;SDS011;22411;53.016;18.632;2024-01-15T08:11:07;19.40;;;12.43;;
36379;SDS011;22411;53.016;18.632;2024-01-15T08:13:33;22.47;;;15.93;;
36379;SDS011;22411;53.016;18.632;2024-01-15T08:15:58;14.50;;;10.67;;
36379;SDS011;22411;53.016;18.632;2024-01-15T08:18:24;8.27;;;4.53;;
36379;SDS011;22411;53.016;18.632;2024-01-15T08:20:50;7.00;;;3.57;;
36379;SDS011;22411;53.016;18.632;2024-01-15T08:23:17;8.20;;;3.00;;
36379;SDS011;22411;53.016;18.632;2024-01-15T08:25:43;8.37;;;4.27;;
36379;SDS011;22411;53.016;18.632;2024-01-15T08:28:08;6.40;;;3.53;;
36379;SDS011;22411;53.016;18.632;2024-01-15T08:30:34;9.53;;;4.30;;
36379;SDS011;22411;53.016;18.632;2024-01-15T08:33:00;7.53;;;4.10;;
36379;SDS011;22411;53.016;18.632;2024-01-15T08:35:26;9.63;;;4.07;;
36379;SDS011;22411;53.016;18.632;2024-01-15T08:37:52;6.63;;;3.83;;
36379;SDS011;22411;53.016;18.632;2024-01-15T08:40:18;11.47;;;3.53;;
36379;SDS011;22411;53.016;18.632;2024-01-15T08:42:44;8.70;;;4.33;;
36379;SDS011;22411;53.016;18.632;2024-01-15T08:45:10;7.10;;;3.23;;
36379;SDS011;22411;53.016;18.632;2024-01-15T08:47:37;6.93;;;3.57;;
36379;SDS011;22411;53.016;18.632;2024-01-15T08:50:03;10.23;;;3.97;;
36379;SDS011;22411;53.016;18.632;2024-01-15T08:52:29;7.90;;;3.53;;
36379;SDS011;22411;53.016;18.632;2024-01-15T08:54:56;11.40;;;5.10;;
36379;SDS011;22411;53.016;18.632;2024-01-15T08:57:22;9.90;;;3.80;;
36379;SDS011;22411;53.016;18.632;2024-01-15T08:59:48;9.00;;;3.47;;
36379;SDS011;22411;53.016;18.632;2024-01-15T09:02:14;6.57;;;3.30;;
36379;SDS011;22411;53.016;18.632;2024-01-15T09:04:40;4.77;;;2.47;;
36379;SDS011;22411;53.016;18.632;2024-01-15T09:07:09;5.47;;;2.13;;
36379;SDS011;22411;53.016;18.632;2024-01-15T09:09:35;5.93;;;3.73;;
36379;SDS011;22411;53.016;18.632;2024-01-15T09:12:01;8.17;;;3.03;;
36379;SDS011;22411;53.016;18.632;2024-01-15T09:14:27;9.67;;;3.87;;
36379;SDS011;22411;53.016;18.632;2024-01-15T09:16:57;7.93;;;2.70;;
36379;SDS011;22411;53.016;18.632;2024-01-15T09:19:26;4.63;;;3.27;;
36379;SDS011;22411;53.016;18.632;2024-01-15T09:21:52;9.83;;;3.00;;
36379;SDS011;22411;53.016;18.632;2024-01-15T09:24:18;7.60;;;3.37;;
36379;SDS011;22411;53.016;18.632;2024-01-15T09:26:44;6.30;;;2.53;;
36379;SDS011;22411;53.016;18.632;2024-01-15T09:29:10;13.20;;;3.43;;
36379;SDS011;22411;53.016;18.632;2024-01-15T09:31:35;8.60;;;3.17;;
36379;SDS011;22411;53.016;18.632;2024-01-15T09:34:01;4.70;;;2.60;;
36379;SDS011;22411;53.016;18.632;2024-01-15T09:36:27;8.40;;;3.13;;
36379;SDS011;22411;53.016;18.632;2024-01-15T09:38:53;9.33;;;2.63;;
36379;SDS011;22411;53.016;18.632;2024-01-15T09:41:19;7.37;;;2.87;;
36379;SDS011;22411;53.016;18.632;2024-01-15T09:43:45;7.93;;;3.03;;
36379;SDS011;22411;53.016;18.632;2024-01-15T09:46:11;7.53;;;3.07;;
36379;SDS011;22411;53.016;18.632;2024-01-15T09:48:37;5.80;;;3.27;;
36379;SDS011;22411;53.016;18.632;2024-01-15T09:51:04;7.23;;;2.90;;
36379;SDS011;22411;53.016;18.632;2024-01-15T09:53:31;7.00;;;2.70;;
36379;SDS011;22411;53.016;18.632;2024-01-15T09:55:58;6.20;;;2.50;;
36379;SDS011;22411;53.016;18.632;2024-01-15T09:58:24;6.63;;;3.40;;
36379;SDS011;22411;53.016;18.632;2024-01-15T10:00:50;7.07;;;4.07;;
36379;SDS011;22411;53.016;18.632;2024-01-15T10:03:17;5.70;;;3.20;;
36379;SDS011;22411;53.016;18.632;2024-01-15T10:05:43;5.37;;;2.37;;
36379;SDS011;22411;53.016;18.632;2024-01-15T10:08:09;4.73;;;1.80;;
36379;SDS011;22411;53.016;18.632;2024-01-15T10:10:36;9.27;;;3.27;;
36379;SDS011;22411;53.016;18.632;2024-01-15T10:13:03;5.00;;;2.23;;
36379;SDS011;22411;53.016;18.632;2024-01-15T10:15:29;10.13;;;2.60;;
36379;SDS011;22411;53.016;18.632;2024-01-15T10:17:58;7.37;;;5.03;;
36379;SDS011;22411;53.016;18.632;2024-01-15T10:20:25;6.17;;;2.83;;
36379;SDS011;22411;53.016;18.632;2024-01-15T10:22:50;7.00;;;3.20;;
36379;SDS011;22411;53.016;18.632;2024-01-15T10:25:16;6.40;;;3.60;;
36379;SDS011;22411;53.016;18.632;2024-01-15T10:27:47;5.88;;;2.60;;
36379;SDS011;22411;53.016;18.632;2024-01-15T10:30:25;5.80;;;2.63;;
36379;SDS011;22411;53.016;18.632;2024-01-15T10:33:00;3.10;;;1.53;;
36379;SDS011;22411;53.016;18.632;2024-01-15T10:35:34;6.07;;;2.33;;
36379;SDS011;22411;53.016;18.632;2024-01-15T10:38:00;7.70;;;2.97;;
36379;SDS011;22411;53.016;18.632;2024-01-15T10:40:27;4.63;;;1.70;;
36379;SDS011;22411;53.016;18.632;2024-01-15T10:42:53;5.00;;;2.40;;
36379;SDS011;22411;53.016;18.632;2024-01-15T10:45:19;4.93;;;2.27;;
36379;SDS011;22411;53.016;18.632;2024-01-15T10:47:45;3.77;;;2.13;;
36379;SDS011;22411;53.016;18.632;2024-01-15T10:50:11;6.53;;;3.00;;
36379;SDS011;22411;53.016;18.632;2024-01-15T10:52:40;9.37;;;4.00;;
36379;SDS011;22411;53.016;18.632;2024-01-15T10:55:07;7.07;;;1.87;;
36379;SDS011;22411;53.016;18.632;2024-01-15T10:57:37;4.80;;;2.93;;
36379;SDS011;22411;53.016;18.632;2024-01-15T11:00:06;5.07;;;3.13;;
36379;SDS011;22411;53.016;18.632;2024-01-15T11:02:32;7.50;;;3.20;;
36379;SDS011;22411;53.016;18.632;2024-01-15T11:05:01;5.23;;;2.23;;
36379;SDS011;22411;53.016;18.632;2024-01-15T11:07:27;3.47;;;1.40;;
36379;SDS011;22411;53.016;18.632;2024-01-15T11:09:55;3.73;;;2.00;;
36379;SDS011;22411;53.016;18.632;2024-01-15T11:12:20;2.90;;;0.93;;
36379;SDS011;22411;53.016;18.632;2024-01-15T11:14:47;5.30;;;2.03;;
36379;SDS011;22411;53.016;18.632;2024-01-15T11:17:16;1.67;;;0.90;;
36379;SDS011;22411;53.016;18.632;2024-01-15T11:19:44;5.10;;;1.13;;
36379;SDS011;22411;53.016;18.632;2024-01-15T11:24:55;2.53;;;1.10;;
36379;SDS011;22411;53.016;18.632;2024-01-15T11:27:49;4.67;;;1.40;;
36379;SDS011;22411;53.016;18.632;2024-01-15T11:30:17;2.63;;;1.30;;
36379;SDS011;22411;53.016;18.632;2024-01-15T11:32:45;6.17;;;0.97;;
36379;SDS011;22411;53.016;18.632;2024-01-15T11:35:12;5.27;;;1.50;;
36379;SDS011;22411;53.016;18.632;2024-01-15T11:40:18;2.40;;;1.13;;
36379;SDS011;22411;53.016;18.632;2024-01-15T11:42:45;2.53;;;1.07;;
36379;SDS011;22411;53.016;18.632;2024-01-15T11:45:11;4.13;;;1.13;;
36379;SDS011;22411;53.016;18.632;2024-01-15T11:50:21;5.83;;;1.77;;
36379;SDS011;22411;53.016;18.632;2024-01-15T11:52:50;4.63;;;1.30;;
36379;SDS011;22411;53.016;18.632;2024-01-15T11:55:36;6.40;;;0.90;;
36379;SDS011;22411;53.016;18.632;2024-01-15T11:58:08;3.63;;;0.70;;
36379;SDS011;22411;53.016;18.632;2024-01-15T12:00:43;1.95;;;0.60;;
36379;SDS011;22411;53.016;18.632;2024-01-15T12:03:10;2.30;;;0.60;;
36379;SDS011;22411;53.016;18.632;2024-01-15T12:05:40;3.42;;;0.60;;
36379;SDS011;22411;53.016;18.632;2024-01-15T12:08:07;4.30;;;1.35;;
36379;SDS011;22411;53.016;18.632;2024-01-15T12:10:39;2.40;;;0.65;;
36379;SDS011;22411;53.016;18.632;2024-01-15T12:15:38;2.03;;;0.53;;
36379;SDS011;22411;53.016;18.632;2024-01-15T12:18:08;3.77;;;0.53;;
36379;SDS011;22411;53.016;18.632;2024-01-15T12:20:35;3.90;;;0.70;;
36379;SDS011;22411;53.016;18.632;2024-01-15T12:23:01;3.27;;;0.63;;
36379;SDS011;22411;53.016;18.632;2024-01-15T12:25:35;3.60;;;0.50;;
36379;SDS011;22411;53.016;18.632;2024-01-15T12:28:01;6.20;;;0.73;;
36379;SDS011;22411;53.016;18.632;2024-01-15T12:30:28;3.50;;;0.53;;
36379;SDS011;22411;53.016;18.632;2024-01-15T12:32:55;5.77;;;1.10;;
36379;SDS011;22411;53.016;18.632;2024-01-15T12:35:21;3.10;;;1.00;;
36379;SDS011;22411;53.016;18.632;2024-01-15T12:37:49;6.90;;;1.73;;
36379;SDS011;22411;53.016;18.632;2024-01-15T12:40:18;5.83;;;0.50;;
36379;SDS011;22411;53.016;18.632;2024-01-15T12:42:44;5.90;;;1.20;;
36379;SDS011;22411;53.016;18.632;2024-01-15T12:45:11;4.20;;;0.77;;
36379;SDS011;22411;53.016;18.632;2024-01-15T12:47:38;6.03;;;1.20;;
36379;SDS011;22411;53.016;18.632;2024-01-15T12:50:08;9.83;;;1.70;;
36379;SDS011;22411;53.016;18.632;2024-01-15T12:52:35;4.60;;;0.60;;
36379;SDS011;22411;53.016;18.632;2024-01-15T12:55:07;1.40;;;0.30;;
36379;SDS011;22411;53.016;18.632;2024-01-15T12:57:34;1.57;;;0.40;;
36379;SDS011;22411;53.016;18.632;2024-01-15T13:00:01;0.80;;;0.40;;
36379;SDS011;22411;53.016;18.632;2024-01-15T13:02:28;1.23;;;0.40;;
36379;SDS011;22411;53.016;18.632;2024-01-15T13:04:54;3.10;;;0.37;;
36379;SDS011;22411;53.016;18.632;2024-01-15T13:07:20;1.20;;;0.30;;
36379;SDS011;22411;53.016;18.632;2024-01-15T13:09:46;0.90;;;0.20;;
36379;SDS011;22411;53.016;18.632;2024-01-15T13:12:12;1.13;;;0.20;;
36379;SDS011;22411;53.016;18.632;2024-01-15T13:14:37;4.57;;;0.33;;
36379;SDS011;22411;53.016;18.632;2024-01-15T13:17:03;0.77;;;0.40;;
36379;SDS011;22411;53.016;18.632;2024-01-15T13:19:29;0.80;;;0.30;;
36379;SDS011;22411;53.016;18.632;2024-01-15T13:21:55;3.03;;;0.40;;
36379;SDS011;22411;53.016;18.632;2024-01-15T13:24:23;3.40;;;1.03;;
36379;SDS011;22411;53.016;18.632;2024-01-15T13:26:49;2.33;;;0.30;;
36379;SDS011;22411;53.016;18.632;2024-01-15T13:29:15;6.37;;;1.10;;
36379;SDS011;22411;53.016;18.632;2024-01-15T13:31:40;6.00;;;2.60;;
36379;SDS011;22411;53.016;18.632;2024-01-15T13:34:06;4.67;;;0.80;;
36379;SDS011;22411;53.016;18.632;2024-01-15T13:36:32;3.23;;;0.63;;
36379;SDS011;22411;53.016;18.632;2024-01-15T13:38:58;2.60;;;0.43;;
36379;SDS011;22411;53.016;18.632;2024-01-15T13:41:24;1.13;;;0.30;;
36379;SDS011;22411;53.016;18.632;2024-01-15T13:43:53;3.73;;;0.30;;
36379;SDS011;22411;53.016;18.632;2024-01-15T13:46:20;2.47;;;0.50;;
36379;SDS011;22411;53.016;18.632;2024-01-15T13:48:49;3.67;;;0.60;;
36379;SDS011;22411;53.016;18.632;2024-01-15T13:51:15;2.97;;;1.13;;
36379;SDS011;22411;53.016;18.632;2024-01-15T13:53:41;3.53;;;0.70;;
36379;SDS011;22411;53.016;18.632;2024-01-15T13:56:06;3.80;;;0.60;;
36379;SDS011;22411;53.016;18.632;2024-01-15T13:58:33;6.47;;;0.73;;
36379;SDS011;22411;53.016;18.632;2024-01-15T14:01:00;4.60;;;1.33;;
36379;SDS011;22411;53.016;18.632;2024-01-15T14:03:28;2.17;;;0.50;;
36379;SDS011;22411;53.016;18.632;2024-01-15T14:05:54;6.60;;;1.90;;
36379;SDS011;22411;53.016;18.632;2024-01-15T14:08:20;4.03;;;0.87;;
36379;SDS011;22411;53.016;18.632;2024-01-15T14:10:46;1.87;;;0.40;;
36379;SDS011;22411;53.016;18.632;2024-01-15T14:13:12;2.10;;;0.77;;
36379;SDS011;22411;53.016;18.632;2024-01-15T14:15:38;7.87;;;1.10;;
36379;SDS011;22411;53.016;18.632;2024-01-15T14:18:04;2.80;;;0.80;;
36379;SDS011;22411;53.016;18.632;2024-01-15T14:20:29;4.53;;;1.03;;
36379;SDS011;22411;53.016;18.632;2024-01-15T14:22:56;6.30;;;1.30;;
36379;SDS011;22411;53.016;18.632;2024-01-15T14:25:22;4.50;;;1.10;;
36379;SDS011;22411;53.016;18.632;2024-01-15T14:27:48;7.17;;;1.97;;
36379;SDS011;22411;53.016;18.632;2024-01-15T14:30:13;2.87;;;0.97;;
36379;SDS011;22411;53.016;18.632;2024-01-15T14:32:41;6.13;;;1.70;;